<?xml version="1.0" encoding="UTF-8" standalone="no" ?>
<gpx xmlns="http://www.topografix.com/GPX/1/1" xmlns:xsi="http://www.w3.org/2001/XMLSchema-instance" xsi:schemaLocation="http://www.topografix.com/GPX/1/1 http://www.topografix.com/GPX/1/1/gpx.xsd" version="1.1" creator="VisuGPX - https://www.visugpx.com">
  <metadata>
    <name>LORGUES DOLMEN DE PEY CERVIER</name>
    <desc><![CDATA[Petite randonnée dans la campagne de Pey Cervier prés du Hameau de Jaume avec visite du dolmen]]></desc>
  </metadata>
  <trk>
    <name><![CDATA[Tracé actuel: 18 MARS 2016 08:27]]></name>
    <trkseg>
      <trkpt lat="43.48466" lon="6.33026">
        <ele>101.08</ele>
        <time>2016-03-18T07:27:33Z</time>
      </trkpt>
      <trkpt lat="43.48468" lon="6.33026">
        <ele>99.15</ele>
        <time>2016-03-18T07:27:34Z</time>
      </trkpt>
      <trkpt lat="43.48468" lon="6.33023">
        <ele>103</ele>
        <time>2016-03-18T07:27:36Z</time>
      </trkpt>
      <trkpt lat="43.48467" lon="6.33023">
        <ele>101.08</ele>
        <time>2016-03-18T07:27:37Z</time>
      </trkpt>
      <trkpt lat="43.48467" lon="6.33023">
        <ele>106.84</ele>
        <time>2016-03-18T07:27:38Z</time>
      </trkpt>
      <trkpt lat="43.48467" lon="6.33022">
        <ele>107.81</ele>
        <time>2016-03-18T07:27:40Z</time>
      </trkpt>
      <trkpt lat="43.48467" lon="6.33021">
        <ele>112.13</ele>
        <time>2016-03-18T07:27:41Z</time>
      </trkpt>
      <trkpt lat="43.48466" lon="6.33021">
        <ele>117.42</ele>
        <time>2016-03-18T07:27:44Z</time>
      </trkpt>
      <trkpt lat="43.48466" lon="6.33021">
        <ele>121.26</ele>
        <time>2016-03-18T07:27:47Z</time>
      </trkpt>
      <trkpt lat="43.48466" lon="6.33021">
        <ele>126.07</ele>
        <time>2016-03-18T07:27:50Z</time>
      </trkpt>
      <trkpt lat="43.48467" lon="6.3302">
        <ele>126.07</ele>
        <time>2016-03-18T07:27:51Z</time>
      </trkpt>
      <trkpt lat="43.48467" lon="6.3302">
        <ele>129.43</ele>
        <time>2016-03-18T07:27:52Z</time>
      </trkpt>
      <trkpt lat="43.48468" lon="6.3302">
        <ele>129.92</ele>
        <time>2016-03-18T07:27:53Z</time>
      </trkpt>
      <trkpt lat="43.48468" lon="6.33019">
        <ele>133.76</ele>
        <time>2016-03-18T07:27:56Z</time>
      </trkpt>
      <trkpt lat="43.4847" lon="6.3302">
        <ele>137.13</ele>
        <time>2016-03-18T07:28:00Z</time>
      </trkpt>
      <trkpt lat="43.4847" lon="6.3302">
        <ele>140.01</ele>
        <time>2016-03-18T07:28:03Z</time>
      </trkpt>
      <trkpt lat="43.48471" lon="6.33021">
        <ele>143.37</ele>
        <time>2016-03-18T07:28:07Z</time>
      </trkpt>
      <trkpt lat="43.48471" lon="6.3302">
        <ele>147.22</ele>
        <time>2016-03-18T07:28:12Z</time>
      </trkpt>
      <trkpt lat="43.4847" lon="6.3302">
        <ele>150.58</ele>
        <time>2016-03-18T07:28:17Z</time>
      </trkpt>
      <trkpt lat="43.48469" lon="6.3302">
        <ele>153.47</ele>
        <time>2016-03-18T07:28:24Z</time>
      </trkpt>
      <trkpt lat="43.48467" lon="6.33022">
        <ele>156.83</ele>
        <time>2016-03-18T07:28:32Z</time>
      </trkpt>
      <trkpt lat="43.48472" lon="6.33019">
        <ele>158.27</ele>
        <time>2016-03-18T07:28:39Z</time>
      </trkpt>
      <trkpt lat="43.48474" lon="6.33018">
        <ele>158.75</ele>
        <time>2016-03-18T07:28:41Z</time>
      </trkpt>
      <trkpt lat="43.48489" lon="6.33011">
        <ele>159.24</ele>
        <time>2016-03-18T07:28:56Z</time>
      </trkpt>
      <trkpt lat="43.48504" lon="6.33003">
        <ele>158.75</ele>
        <time>2016-03-18T07:29:08Z</time>
      </trkpt>
      <trkpt lat="43.48505" lon="6.33002">
        <ele>158.27</ele>
        <time>2016-03-18T07:29:10Z</time>
      </trkpt>
      <trkpt lat="43.48521" lon="6.32991">
        <ele>157.31</ele>
        <time>2016-03-18T07:29:23Z</time>
      </trkpt>
      <trkpt lat="43.48532" lon="6.3298">
        <ele>156.35</ele>
        <time>2016-03-18T07:29:33Z</time>
      </trkpt>
      <trkpt lat="43.48536" lon="6.32974">
        <ele>156.83</ele>
        <time>2016-03-18T07:29:39Z</time>
      </trkpt>
      <trkpt lat="43.48541" lon="6.32961">
        <ele>157.79</ele>
        <time>2016-03-18T07:29:48Z</time>
      </trkpt>
      <trkpt lat="43.48555" lon="6.32944">
        <ele>157.31</ele>
        <time>2016-03-18T07:30:02Z</time>
      </trkpt>
      <trkpt lat="43.48556" lon="6.32944">
        <ele>157.31</ele>
        <time>2016-03-18T07:30:03Z</time>
      </trkpt>
      <trkpt lat="43.48565" lon="6.32935">
        <ele>157.31</ele>
        <time>2016-03-18T07:30:14Z</time>
      </trkpt>
      <trkpt lat="43.48572" lon="6.32933">
        <ele>157.79</ele>
        <time>2016-03-18T07:30:25Z</time>
      </trkpt>
      <trkpt lat="43.4858" lon="6.32929">
        <ele>157.31</ele>
        <time>2016-03-18T07:30:42Z</time>
      </trkpt>
      <trkpt lat="43.48581" lon="6.32929">
        <ele>157.31</ele>
        <time>2016-03-18T07:31:00Z</time>
      </trkpt>
      <trkpt lat="43.48582" lon="6.32929">
        <ele>157.79</ele>
        <time>2016-03-18T07:31:07Z</time>
      </trkpt>
      <trkpt lat="43.48592" lon="6.32917">
        <ele>158.27</ele>
        <time>2016-03-18T07:31:20Z</time>
      </trkpt>
      <trkpt lat="43.48598" lon="6.32915">
        <ele>158.27</ele>
        <time>2016-03-18T07:31:30Z</time>
      </trkpt>
      <trkpt lat="43.48605" lon="6.32912">
        <ele>159.24</ele>
        <time>2016-03-18T07:31:35Z</time>
      </trkpt>
      <trkpt lat="43.48616" lon="6.329">
        <ele>161.16</ele>
        <time>2016-03-18T07:31:49Z</time>
      </trkpt>
      <trkpt lat="43.48627" lon="6.32887">
        <ele>163.08</ele>
        <time>2016-03-18T07:32:04Z</time>
      </trkpt>
      <trkpt lat="43.4863" lon="6.32886">
        <ele>163.56</ele>
        <time>2016-03-18T07:32:07Z</time>
      </trkpt>
      <trkpt lat="43.48637" lon="6.32878">
        <ele>164.52</ele>
        <time>2016-03-18T07:32:15Z</time>
      </trkpt>
      <trkpt lat="43.48642" lon="6.32873">
        <ele>165.48</ele>
        <time>2016-03-18T07:32:20Z</time>
      </trkpt>
      <trkpt lat="43.48643" lon="6.3287">
        <ele>165.96</ele>
        <time>2016-03-18T07:32:25Z</time>
      </trkpt>
      <trkpt lat="43.48644" lon="6.3287">
        <ele>165.96</ele>
        <time>2016-03-18T07:32:27Z</time>
      </trkpt>
      <trkpt lat="43.48646" lon="6.32868">
        <ele>166.45</ele>
        <time>2016-03-18T07:32:29Z</time>
      </trkpt>
      <trkpt lat="43.48649" lon="6.32865">
        <ele>166.93</ele>
        <time>2016-03-18T07:32:32Z</time>
      </trkpt>
      <trkpt lat="43.48651" lon="6.32863">
        <ele>167.41</ele>
        <time>2016-03-18T07:32:34Z</time>
      </trkpt>
      <trkpt lat="43.48655" lon="6.32861">
        <ele>167.89</ele>
        <time>2016-03-18T07:32:38Z</time>
      </trkpt>
      <trkpt lat="43.48669" lon="6.32852">
        <ele>169.33</ele>
        <time>2016-03-18T07:32:53Z</time>
      </trkpt>
      <trkpt lat="43.4867" lon="6.3285">
        <ele>169.81</ele>
        <time>2016-03-18T07:32:57Z</time>
      </trkpt>
      <trkpt lat="43.48674" lon="6.32851">
        <ele>169.81</ele>
        <time>2016-03-18T07:33:01Z</time>
      </trkpt>
      <trkpt lat="43.4869" lon="6.32851">
        <ele>170.77</ele>
        <time>2016-03-18T07:33:14Z</time>
      </trkpt>
      <trkpt lat="43.48701" lon="6.32852">
        <ele>171.73</ele>
        <time>2016-03-18T07:33:23Z</time>
      </trkpt>
      <trkpt lat="43.48713" lon="6.32857">
        <ele>172.69</ele>
        <time>2016-03-18T07:33:33Z</time>
      </trkpt>
      <trkpt lat="43.48716" lon="6.32858">
        <ele>173.17</ele>
        <time>2016-03-18T07:33:36Z</time>
      </trkpt>
      <trkpt lat="43.48729" lon="6.32867">
        <ele>174.14</ele>
        <time>2016-03-18T07:33:48Z</time>
      </trkpt>
      <trkpt lat="43.48746" lon="6.32871">
        <ele>175.58</ele>
        <time>2016-03-18T07:34:03Z</time>
      </trkpt>
      <trkpt lat="43.48762" lon="6.32875">
        <ele>176.06</ele>
        <time>2016-03-18T07:34:16Z</time>
      </trkpt>
      <trkpt lat="43.48781" lon="6.32881">
        <ele>176.54</ele>
        <time>2016-03-18T07:34:31Z</time>
      </trkpt>
      <trkpt lat="43.48789" lon="6.32885">
        <ele>177.02</ele>
        <time>2016-03-18T07:34:38Z</time>
      </trkpt>
      <trkpt lat="43.48793" lon="6.32886">
        <ele>177.5</ele>
        <time>2016-03-18T07:34:42Z</time>
      </trkpt>
      <trkpt lat="43.48811" lon="6.32895">
        <ele>177.98</ele>
        <time>2016-03-18T07:34:56Z</time>
      </trkpt>
      <trkpt lat="43.4883" lon="6.32899">
        <ele>177.02</ele>
        <time>2016-03-18T07:35:10Z</time>
      </trkpt>
      <trkpt lat="43.48837" lon="6.32902">
        <ele>176.54</ele>
        <time>2016-03-18T07:35:15Z</time>
      </trkpt>
      <trkpt lat="43.48853" lon="6.32905">
        <ele>174.14</ele>
        <time>2016-03-18T07:35:27Z</time>
      </trkpt>
      <trkpt lat="43.48859" lon="6.32907">
        <ele>173.66</ele>
        <time>2016-03-18T07:35:33Z</time>
      </trkpt>
      <trkpt lat="43.48873" lon="6.32906">
        <ele>172.21</ele>
        <time>2016-03-18T07:35:45Z</time>
      </trkpt>
      <trkpt lat="43.48879" lon="6.32909">
        <ele>171.73</ele>
        <time>2016-03-18T07:35:50Z</time>
      </trkpt>
      <trkpt lat="43.48886" lon="6.32911">
        <ele>171.73</ele>
        <time>2016-03-18T07:35:56Z</time>
      </trkpt>
      <trkpt lat="43.48894" lon="6.32909">
        <ele>171.73</ele>
        <time>2016-03-18T07:36:05Z</time>
      </trkpt>
      <trkpt lat="43.48909" lon="6.32907">
        <ele>171.73</ele>
        <time>2016-03-18T07:36:15Z</time>
      </trkpt>
      <trkpt lat="43.48915" lon="6.32906">
        <ele>172.21</ele>
        <time>2016-03-18T07:36:19Z</time>
      </trkpt>
      <trkpt lat="43.48932" lon="6.32906">
        <ele>172.21</ele>
        <time>2016-03-18T07:36:32Z</time>
      </trkpt>
      <trkpt lat="43.48936" lon="6.32905">
        <ele>172.69</ele>
        <time>2016-03-18T07:36:35Z</time>
      </trkpt>
      <trkpt lat="43.48955" lon="6.32899">
        <ele>173.66</ele>
        <time>2016-03-18T07:36:49Z</time>
      </trkpt>
      <trkpt lat="43.48974" lon="6.32892">
        <ele>174.14</ele>
        <time>2016-03-18T07:37:02Z</time>
      </trkpt>
      <trkpt lat="43.48991" lon="6.32889">
        <ele>174.14</ele>
        <time>2016-03-18T07:37:16Z</time>
      </trkpt>
      <trkpt lat="43.4901" lon="6.32885">
        <ele>173.66</ele>
        <time>2016-03-18T07:37:30Z</time>
      </trkpt>
      <trkpt lat="43.49035" lon="6.32878">
        <ele>172.21</ele>
        <time>2016-03-18T07:37:48Z</time>
      </trkpt>
      <trkpt lat="43.49056" lon="6.32872">
        <ele>170.77</ele>
        <time>2016-03-18T07:38:03Z</time>
      </trkpt>
      <trkpt lat="43.49078" lon="6.32869">
        <ele>169.33</ele>
        <time>2016-03-18T07:38:19Z</time>
      </trkpt>
      <trkpt lat="43.49092" lon="6.3287">
        <ele>168.85</ele>
        <time>2016-03-18T07:38:29Z</time>
      </trkpt>
      <trkpt lat="43.49095" lon="6.3287">
        <ele>168.85</ele>
        <time>2016-03-18T07:38:32Z</time>
      </trkpt>
      <trkpt lat="43.49116" lon="6.32875">
        <ele>169.33</ele>
        <time>2016-03-18T07:38:47Z</time>
      </trkpt>
      <trkpt lat="43.49122" lon="6.32876">
        <ele>169.33</ele>
        <time>2016-03-18T07:38:53Z</time>
      </trkpt>
      <trkpt lat="43.49125" lon="6.32877">
        <ele>169.81</ele>
        <time>2016-03-18T07:38:55Z</time>
      </trkpt>
      <trkpt lat="43.49145" lon="6.32886">
        <ele>170.29</ele>
        <time>2016-03-18T07:39:08Z</time>
      </trkpt>
      <trkpt lat="43.49166" lon="6.32893">
        <ele>170.29</ele>
        <time>2016-03-18T07:39:24Z</time>
      </trkpt>
      <trkpt lat="43.49183" lon="6.32897">
        <ele>170.77</ele>
        <time>2016-03-18T07:39:36Z</time>
      </trkpt>
      <trkpt lat="43.49203" lon="6.32896">
        <ele>172.21</ele>
        <time>2016-03-18T07:39:51Z</time>
      </trkpt>
      <trkpt lat="43.49221" lon="6.32897">
        <ele>173.66</ele>
        <time>2016-03-18T07:40:05Z</time>
      </trkpt>
      <trkpt lat="43.49238" lon="6.32898">
        <ele>174.62</ele>
        <time>2016-03-18T07:40:20Z</time>
      </trkpt>
      <trkpt lat="43.49251" lon="6.32898">
        <ele>175.58</ele>
        <time>2016-03-18T07:40:34Z</time>
      </trkpt>
      <trkpt lat="43.49256" lon="6.32895">
        <ele>176.06</ele>
        <time>2016-03-18T07:40:59Z</time>
      </trkpt>
      <trkpt lat="43.49257" lon="6.32894">
        <ele>176.06</ele>
        <time>2016-03-18T07:41:32Z</time>
      </trkpt>
      <trkpt lat="43.49257" lon="6.32895">
        <ele>176.06</ele>
        <time>2016-03-18T07:42:00Z</time>
      </trkpt>
      <trkpt lat="43.49257" lon="6.32894">
        <ele>176.06</ele>
        <time>2016-03-18T07:42:35Z</time>
      </trkpt>
      <trkpt lat="43.49257" lon="6.32894">
        <ele>176.06</ele>
        <time>2016-03-18T07:42:47Z</time>
      </trkpt>
      <trkpt lat="43.49256" lon="6.32891">
        <ele>176.06</ele>
        <time>2016-03-18T07:42:49Z</time>
      </trkpt>
      <trkpt lat="43.49256" lon="6.32884">
        <ele>176.06</ele>
        <time>2016-03-18T07:42:53Z</time>
      </trkpt>
      <trkpt lat="43.4926" lon="6.3286">
        <ele>175.58</ele>
        <time>2016-03-18T07:43:07Z</time>
      </trkpt>
      <trkpt lat="43.49263" lon="6.32839">
        <ele>175.58</ele>
        <time>2016-03-18T07:43:18Z</time>
      </trkpt>
      <trkpt lat="43.49265" lon="6.32832">
        <ele>175.1</ele>
        <time>2016-03-18T07:43:23Z</time>
      </trkpt>
      <trkpt lat="43.49268" lon="6.32809">
        <ele>175.1</ele>
        <time>2016-03-18T07:43:36Z</time>
      </trkpt>
      <trkpt lat="43.49272" lon="6.32791">
        <ele>175.1</ele>
        <time>2016-03-18T07:43:47Z</time>
      </trkpt>
      <trkpt lat="43.49275" lon="6.3278">
        <ele>175.58</ele>
        <time>2016-03-18T07:43:53Z</time>
      </trkpt>
      <trkpt lat="43.49282" lon="6.32756">
        <ele>176.06</ele>
        <time>2016-03-18T07:44:07Z</time>
      </trkpt>
      <trkpt lat="43.49286" lon="6.32742">
        <ele>176.54</ele>
        <time>2016-03-18T07:44:15Z</time>
      </trkpt>
      <trkpt lat="43.49289" lon="6.32729">
        <ele>177.02</ele>
        <time>2016-03-18T07:44:23Z</time>
      </trkpt>
      <trkpt lat="43.49295" lon="6.32705">
        <ele>177.5</ele>
        <time>2016-03-18T07:44:37Z</time>
      </trkpt>
      <trkpt lat="43.49295" lon="6.32703">
        <ele>177.02</ele>
        <time>2016-03-18T07:44:38Z</time>
      </trkpt>
      <trkpt lat="43.49297" lon="6.32696">
        <ele>177.5</ele>
        <time>2016-03-18T07:44:42Z</time>
      </trkpt>
      <trkpt lat="43.49299" lon="6.32688">
        <ele>177.5</ele>
        <time>2016-03-18T07:44:47Z</time>
      </trkpt>
      <trkpt lat="43.493" lon="6.32684">
        <ele>177.5</ele>
        <time>2016-03-18T07:44:49Z</time>
      </trkpt>
      <trkpt lat="43.49301" lon="6.3268">
        <ele>177.98</ele>
        <time>2016-03-18T07:44:51Z</time>
      </trkpt>
      <trkpt lat="43.49306" lon="6.32667">
        <ele>177.98</ele>
        <time>2016-03-18T07:45:00Z</time>
      </trkpt>
      <trkpt lat="43.49307" lon="6.32659">
        <ele>178.46</ele>
        <time>2016-03-18T07:45:05Z</time>
      </trkpt>
      <trkpt lat="43.49308" lon="6.32653">
        <ele>178.46</ele>
        <time>2016-03-18T07:45:09Z</time>
      </trkpt>
      <trkpt lat="43.4931" lon="6.32647">
        <ele>178.94</ele>
        <time>2016-03-18T07:45:12Z</time>
      </trkpt>
      <trkpt lat="43.4931" lon="6.32642">
        <ele>178.94</ele>
        <time>2016-03-18T07:45:15Z</time>
      </trkpt>
      <trkpt lat="43.49313" lon="6.32636">
        <ele>178.94</ele>
        <time>2016-03-18T07:45:19Z</time>
      </trkpt>
      <trkpt lat="43.49315" lon="6.32626">
        <ele>179.42</ele>
        <time>2016-03-18T07:45:24Z</time>
      </trkpt>
      <trkpt lat="43.49317" lon="6.3262">
        <ele>179.42</ele>
        <time>2016-03-18T07:45:28Z</time>
      </trkpt>
      <trkpt lat="43.49319" lon="6.32604">
        <ele>179.42</ele>
        <time>2016-03-18T07:45:36Z</time>
      </trkpt>
      <trkpt lat="43.49321" lon="6.32581">
        <ele>180.38</ele>
        <time>2016-03-18T07:45:50Z</time>
      </trkpt>
      <trkpt lat="43.49326" lon="6.32571">
        <ele>180.87</ele>
        <time>2016-03-18T07:46:05Z</time>
      </trkpt>
      <trkpt lat="43.49325" lon="6.3257">
        <ele>181.83</ele>
        <time>2016-03-18T07:46:17Z</time>
      </trkpt>
      <trkpt lat="43.49325" lon="6.32569">
        <ele>180.87</ele>
        <time>2016-03-18T07:46:29Z</time>
      </trkpt>
      <trkpt lat="43.49329" lon="6.32563">
        <ele>181.35</ele>
        <time>2016-03-18T07:46:36Z</time>
      </trkpt>
      <trkpt lat="43.49334" lon="6.32557">
        <ele>181.83</ele>
        <time>2016-03-18T07:46:47Z</time>
      </trkpt>
      <trkpt lat="43.49341" lon="6.32539">
        <ele>182.79</ele>
        <time>2016-03-18T07:47:01Z</time>
      </trkpt>
      <trkpt lat="43.49347" lon="6.32524">
        <ele>183.27</ele>
        <time>2016-03-18T07:47:11Z</time>
      </trkpt>
      <trkpt lat="43.49348" lon="6.32521">
        <ele>183.75</ele>
        <time>2016-03-18T07:47:13Z</time>
      </trkpt>
      <trkpt lat="43.49352" lon="6.32505">
        <ele>184.23</ele>
        <time>2016-03-18T07:47:25Z</time>
      </trkpt>
      <trkpt lat="43.49351" lon="6.325">
        <ele>184.23</ele>
        <time>2016-03-18T07:47:28Z</time>
      </trkpt>
      <trkpt lat="43.49351" lon="6.32482">
        <ele>184.71</ele>
        <time>2016-03-18T07:47:41Z</time>
      </trkpt>
      <trkpt lat="43.49351" lon="6.32475">
        <ele>185.19</ele>
        <time>2016-03-18T07:47:47Z</time>
      </trkpt>
      <trkpt lat="43.49348" lon="6.32468">
        <ele>187.11</ele>
        <time>2016-03-18T07:48:01Z</time>
      </trkpt>
      <trkpt lat="43.49346" lon="6.32464">
        <ele>185.67</ele>
        <time>2016-03-18T07:48:15Z</time>
      </trkpt>
      <trkpt lat="43.49345" lon="6.32458">
        <ele>186.63</ele>
        <time>2016-03-18T07:48:19Z</time>
      </trkpt>
      <trkpt lat="43.49347" lon="6.32439">
        <ele>186.63</ele>
        <time>2016-03-18T07:48:32Z</time>
      </trkpt>
      <trkpt lat="43.49352" lon="6.32423">
        <ele>187.59</ele>
        <time>2016-03-18T07:48:43Z</time>
      </trkpt>
      <trkpt lat="43.49352" lon="6.32417">
        <ele>188.08</ele>
        <time>2016-03-18T07:48:48Z</time>
      </trkpt>
      <trkpt lat="43.49353" lon="6.32412">
        <ele>188.56</ele>
        <time>2016-03-18T07:48:52Z</time>
      </trkpt>
      <trkpt lat="43.49354" lon="6.32396">
        <ele>189.04</ele>
        <time>2016-03-18T07:49:06Z</time>
      </trkpt>
      <trkpt lat="43.49355" lon="6.32387">
        <ele>189.52</ele>
        <time>2016-03-18T07:49:19Z</time>
      </trkpt>
      <trkpt lat="43.49353" lon="6.32388">
        <ele>189.52</ele>
        <time>2016-03-18T07:49:35Z</time>
      </trkpt>
      <trkpt lat="43.49355" lon="6.32383">
        <ele>189.52</ele>
        <time>2016-03-18T07:49:47Z</time>
      </trkpt>
      <trkpt lat="43.49359" lon="6.32378">
        <ele>190</ele>
        <time>2016-03-18T07:49:54Z</time>
      </trkpt>
      <trkpt lat="43.4936" lon="6.32375">
        <ele>190</ele>
        <time>2016-03-18T07:49:56Z</time>
      </trkpt>
      <trkpt lat="43.49367" lon="6.32362">
        <ele>190.48</ele>
        <time>2016-03-18T07:50:07Z</time>
      </trkpt>
      <trkpt lat="43.49369" lon="6.32356">
        <ele>190.96</ele>
        <time>2016-03-18T07:50:12Z</time>
      </trkpt>
      <trkpt lat="43.49371" lon="6.32351">
        <ele>190.96</ele>
        <time>2016-03-18T07:50:16Z</time>
      </trkpt>
      <trkpt lat="43.49375" lon="6.32338">
        <ele>191.44</ele>
        <time>2016-03-18T07:50:25Z</time>
      </trkpt>
      <trkpt lat="43.49376" lon="6.32334">
        <ele>191.44</ele>
        <time>2016-03-18T07:50:27Z</time>
      </trkpt>
      <trkpt lat="43.49384" lon="6.32322">
        <ele>191.92</ele>
        <time>2016-03-18T07:50:38Z</time>
      </trkpt>
      <trkpt lat="43.49386" lon="6.32313">
        <ele>192.4</ele>
        <time>2016-03-18T07:50:46Z</time>
      </trkpt>
      <trkpt lat="43.49386" lon="6.32304">
        <ele>192.88</ele>
        <time>2016-03-18T07:50:52Z</time>
      </trkpt>
      <trkpt lat="43.49387" lon="6.323">
        <ele>192.88</ele>
        <time>2016-03-18T07:50:55Z</time>
      </trkpt>
      <trkpt lat="43.49392" lon="6.3228">
        <ele>193.84</ele>
        <time>2016-03-18T07:51:08Z</time>
      </trkpt>
      <trkpt lat="43.49393" lon="6.32269">
        <ele>194.32</ele>
        <time>2016-03-18T07:51:16Z</time>
      </trkpt>
      <trkpt lat="43.49392" lon="6.32245">
        <ele>195.28</ele>
        <time>2016-03-18T07:51:29Z</time>
      </trkpt>
      <trkpt lat="43.4939" lon="6.32237">
        <ele>195.77</ele>
        <time>2016-03-18T07:51:36Z</time>
      </trkpt>
      <trkpt lat="43.49389" lon="6.32234">
        <ele>195.77</ele>
        <time>2016-03-18T07:51:38Z</time>
      </trkpt>
      <trkpt lat="43.49385" lon="6.32224">
        <ele>196.25</ele>
        <time>2016-03-18T07:51:45Z</time>
      </trkpt>
      <trkpt lat="43.49381" lon="6.32222">
        <ele>196.73</ele>
        <time>2016-03-18T07:51:49Z</time>
      </trkpt>
      <trkpt lat="43.49377" lon="6.3221">
        <ele>198.17</ele>
        <time>2016-03-18T07:52:01Z</time>
      </trkpt>
      <trkpt lat="43.49375" lon="6.32197">
        <ele>199.61</ele>
        <time>2016-03-18T07:52:11Z</time>
      </trkpt>
      <trkpt lat="43.49371" lon="6.32193">
        <ele>199.61</ele>
        <time>2016-03-18T07:52:14Z</time>
      </trkpt>
      <trkpt lat="43.49369" lon="6.32184">
        <ele>199.61</ele>
        <time>2016-03-18T07:52:20Z</time>
      </trkpt>
      <trkpt lat="43.49358" lon="6.32171">
        <ele>201.53</ele>
        <time>2016-03-18T07:52:31Z</time>
      </trkpt>
      <trkpt lat="43.49351" lon="6.32163">
        <ele>202.01</ele>
        <time>2016-03-18T07:52:40Z</time>
      </trkpt>
      <trkpt lat="43.49348" lon="6.32155">
        <ele>201.53</ele>
        <time>2016-03-18T07:52:46Z</time>
      </trkpt>
      <trkpt lat="43.49344" lon="6.32146">
        <ele>202.49</ele>
        <time>2016-03-18T07:52:53Z</time>
      </trkpt>
      <trkpt lat="43.49343" lon="6.32131">
        <ele>202.98</ele>
        <time>2016-03-18T07:53:03Z</time>
      </trkpt>
      <trkpt lat="43.4934" lon="6.32111">
        <ele>204.42</ele>
        <time>2016-03-18T07:53:16Z</time>
      </trkpt>
      <trkpt lat="43.49337" lon="6.32094">
        <ele>204.9</ele>
        <time>2016-03-18T07:53:28Z</time>
      </trkpt>
      <trkpt lat="43.49338" lon="6.32079">
        <ele>205.86</ele>
        <time>2016-03-18T07:53:39Z</time>
      </trkpt>
      <trkpt lat="43.49337" lon="6.32072">
        <ele>206.82</ele>
        <time>2016-03-18T07:53:46Z</time>
      </trkpt>
      <trkpt lat="43.49338" lon="6.32069">
        <ele>206.82</ele>
        <time>2016-03-18T07:53:48Z</time>
      </trkpt>
      <trkpt lat="43.49342" lon="6.32056">
        <ele>208.26</ele>
        <time>2016-03-18T07:53:59Z</time>
      </trkpt>
      <trkpt lat="43.49343" lon="6.3205">
        <ele>209.22</ele>
        <time>2016-03-18T07:54:04Z</time>
      </trkpt>
      <trkpt lat="43.49342" lon="6.3204">
        <ele>209.7</ele>
        <time>2016-03-18T07:54:11Z</time>
      </trkpt>
      <trkpt lat="43.49346" lon="6.32032">
        <ele>210.19</ele>
        <time>2016-03-18T07:54:17Z</time>
      </trkpt>
      <trkpt lat="43.49347" lon="6.32026">
        <ele>210.67</ele>
        <time>2016-03-18T07:54:21Z</time>
      </trkpt>
      <trkpt lat="43.49348" lon="6.3202">
        <ele>210.67</ele>
        <time>2016-03-18T07:54:25Z</time>
      </trkpt>
      <trkpt lat="43.49347" lon="6.32004">
        <ele>211.63</ele>
        <time>2016-03-18T07:54:37Z</time>
      </trkpt>
      <trkpt lat="43.49346" lon="6.31979">
        <ele>212.59</ele>
        <time>2016-03-18T07:54:52Z</time>
      </trkpt>
      <trkpt lat="43.49347" lon="6.31975">
        <ele>212.59</ele>
        <time>2016-03-18T07:54:55Z</time>
      </trkpt>
      <trkpt lat="43.49347" lon="6.31969">
        <ele>212.59</ele>
        <time>2016-03-18T07:54:58Z</time>
      </trkpt>
      <trkpt lat="43.4935" lon="6.31944">
        <ele>213.55</ele>
        <time>2016-03-18T07:55:10Z</time>
      </trkpt>
      <trkpt lat="43.4935" lon="6.31941">
        <ele>214.03</ele>
        <time>2016-03-18T07:55:14Z</time>
      </trkpt>
      <trkpt lat="43.49351" lon="6.31938">
        <ele>214.03</ele>
        <time>2016-03-18T07:55:16Z</time>
      </trkpt>
      <trkpt lat="43.49354" lon="6.31926">
        <ele>214.99</ele>
        <time>2016-03-18T07:55:24Z</time>
      </trkpt>
      <trkpt lat="43.49356" lon="6.31923">
        <ele>214.99</ele>
        <time>2016-03-18T07:55:27Z</time>
      </trkpt>
      <trkpt lat="43.49358" lon="6.31903">
        <ele>215.95</ele>
        <time>2016-03-18T07:55:41Z</time>
      </trkpt>
      <trkpt lat="43.49354" lon="6.319">
        <ele>215.95</ele>
        <time>2016-03-18T07:55:55Z</time>
      </trkpt>
      <trkpt lat="43.49348" lon="6.31891">
        <ele>215.95</ele>
        <time>2016-03-18T07:56:07Z</time>
      </trkpt>
      <trkpt lat="43.49347" lon="6.31885">
        <ele>216.91</ele>
        <time>2016-03-18T07:56:20Z</time>
      </trkpt>
      <trkpt lat="43.49348" lon="6.31878">
        <ele>217.88</ele>
        <time>2016-03-18T07:56:35Z</time>
      </trkpt>
      <trkpt lat="43.49344" lon="6.3187">
        <ele>218.36</ele>
        <time>2016-03-18T07:56:43Z</time>
      </trkpt>
      <trkpt lat="43.49339" lon="6.31858">
        <ele>220.28</ele>
        <time>2016-03-18T07:56:53Z</time>
      </trkpt>
      <trkpt lat="43.49337" lon="6.31846">
        <ele>221.24</ele>
        <time>2016-03-18T07:57:02Z</time>
      </trkpt>
      <trkpt lat="43.49336" lon="6.31843">
        <ele>221.24</ele>
        <time>2016-03-18T07:57:04Z</time>
      </trkpt>
      <trkpt lat="43.49335" lon="6.31837">
        <ele>221.72</ele>
        <time>2016-03-18T07:57:08Z</time>
      </trkpt>
      <trkpt lat="43.49332" lon="6.31832">
        <ele>222.68</ele>
        <time>2016-03-18T07:57:12Z</time>
      </trkpt>
      <trkpt lat="43.49327" lon="6.31819">
        <ele>224.12</ele>
        <time>2016-03-18T07:57:24Z</time>
      </trkpt>
      <trkpt lat="43.49316" lon="6.31802">
        <ele>225.09</ele>
        <time>2016-03-18T07:57:39Z</time>
      </trkpt>
      <trkpt lat="43.49314" lon="6.31796">
        <ele>225.57</ele>
        <time>2016-03-18T07:57:44Z</time>
      </trkpt>
      <trkpt lat="43.49312" lon="6.31793">
        <ele>225.57</ele>
        <time>2016-03-18T07:57:47Z</time>
      </trkpt>
      <trkpt lat="43.49303" lon="6.31776">
        <ele>226.05</ele>
        <time>2016-03-18T07:58:00Z</time>
      </trkpt>
      <trkpt lat="43.49301" lon="6.31771">
        <ele>226.53</ele>
        <time>2016-03-18T07:58:04Z</time>
      </trkpt>
      <trkpt lat="43.49299" lon="6.31768">
        <ele>226.53</ele>
        <time>2016-03-18T07:58:07Z</time>
      </trkpt>
      <trkpt lat="43.49297" lon="6.31765">
        <ele>227.01</ele>
        <time>2016-03-18T07:58:09Z</time>
      </trkpt>
      <trkpt lat="43.4929" lon="6.31751">
        <ele>227.01</ele>
        <time>2016-03-18T07:58:19Z</time>
      </trkpt>
      <trkpt lat="43.49284" lon="6.31738">
        <ele>227.49</ele>
        <time>2016-03-18T07:58:32Z</time>
      </trkpt>
      <trkpt lat="43.4928" lon="6.31721">
        <ele>227.97</ele>
        <time>2016-03-18T07:58:44Z</time>
      </trkpt>
      <trkpt lat="43.4928" lon="6.31719">
        <ele>227.97</ele>
        <time>2016-03-18T07:58:46Z</time>
      </trkpt>
      <trkpt lat="43.49277" lon="6.3171">
        <ele>228.45</ele>
        <time>2016-03-18T07:58:57Z</time>
      </trkpt>
      <trkpt lat="43.49273" lon="6.317">
        <ele>228.93</ele>
        <time>2016-03-18T07:59:08Z</time>
      </trkpt>
      <trkpt lat="43.49273" lon="6.31697">
        <ele>229.41</ele>
        <time>2016-03-18T07:59:10Z</time>
      </trkpt>
      <trkpt lat="43.49266" lon="6.31678">
        <ele>230.37</ele>
        <time>2016-03-18T07:59:23Z</time>
      </trkpt>
      <trkpt lat="43.4926" lon="6.31659">
        <ele>232.3</ele>
        <time>2016-03-18T07:59:37Z</time>
      </trkpt>
      <trkpt lat="43.4926" lon="6.31656">
        <ele>232.78</ele>
        <time>2016-03-18T07:59:39Z</time>
      </trkpt>
      <trkpt lat="43.49257" lon="6.31643">
        <ele>234.22</ele>
        <time>2016-03-18T07:59:57Z</time>
      </trkpt>
      <trkpt lat="43.49256" lon="6.31633">
        <ele>235.66</ele>
        <time>2016-03-18T08:00:19Z</time>
      </trkpt>
      <trkpt lat="43.49255" lon="6.31626">
        <ele>236.14</ele>
        <time>2016-03-18T08:00:23Z</time>
      </trkpt>
      <trkpt lat="43.49253" lon="6.31619">
        <ele>237.1</ele>
        <time>2016-03-18T08:00:28Z</time>
      </trkpt>
      <trkpt lat="43.49246" lon="6.31602">
        <ele>239.51</ele>
        <time>2016-03-18T08:00:43Z</time>
      </trkpt>
      <trkpt lat="43.4924" lon="6.31584">
        <ele>241.43</ele>
        <time>2016-03-18T08:00:58Z</time>
      </trkpt>
      <trkpt lat="43.49236" lon="6.31578">
        <ele>242.39</ele>
        <time>2016-03-18T08:01:04Z</time>
      </trkpt>
      <trkpt lat="43.4923" lon="6.31573">
        <ele>243.35</ele>
        <time>2016-03-18T08:01:10Z</time>
      </trkpt>
      <trkpt lat="43.49221" lon="6.3156">
        <ele>244.79</ele>
        <time>2016-03-18T08:01:24Z</time>
      </trkpt>
      <trkpt lat="43.49219" lon="6.31557">
        <ele>245.27</ele>
        <time>2016-03-18T08:01:27Z</time>
      </trkpt>
      <trkpt lat="43.49218" lon="6.3155">
        <ele>245.75</ele>
        <time>2016-03-18T08:01:32Z</time>
      </trkpt>
      <trkpt lat="43.49215" lon="6.31543">
        <ele>246.23</ele>
        <time>2016-03-18T08:01:38Z</time>
      </trkpt>
      <trkpt lat="43.49215" lon="6.3154">
        <ele>246.23</ele>
        <time>2016-03-18T08:01:40Z</time>
      </trkpt>
      <trkpt lat="43.49209" lon="6.31519">
        <ele>247.2</ele>
        <time>2016-03-18T08:01:55Z</time>
      </trkpt>
      <trkpt lat="43.49202" lon="6.315">
        <ele>248.16</ele>
        <time>2016-03-18T08:02:07Z</time>
      </trkpt>
      <trkpt lat="43.49202" lon="6.31482">
        <ele>249.12</ele>
        <time>2016-03-18T08:02:19Z</time>
      </trkpt>
      <trkpt lat="43.49199" lon="6.31467">
        <ele>251.04</ele>
        <time>2016-03-18T08:02:31Z</time>
      </trkpt>
      <trkpt lat="43.49199" lon="6.31456">
        <ele>252.48</ele>
        <time>2016-03-18T08:02:39Z</time>
      </trkpt>
      <trkpt lat="43.492" lon="6.31442">
        <ele>255.37</ele>
        <time>2016-03-18T08:02:51Z</time>
      </trkpt>
      <trkpt lat="43.49202" lon="6.31424">
        <ele>257.77</ele>
        <time>2016-03-18T08:03:04Z</time>
      </trkpt>
      <trkpt lat="43.49205" lon="6.3141">
        <ele>260.17</ele>
        <time>2016-03-18T08:03:17Z</time>
      </trkpt>
      <trkpt lat="43.49202" lon="6.31404">
        <ele>260.17</ele>
        <time>2016-03-18T08:03:37Z</time>
      </trkpt>
      <trkpt lat="43.49197" lon="6.31392">
        <ele>263.54</ele>
        <time>2016-03-18T08:03:46Z</time>
      </trkpt>
      <trkpt lat="43.49193" lon="6.31385">
        <ele>263.54</ele>
        <time>2016-03-18T08:03:48Z</time>
      </trkpt>
      <trkpt lat="43.49193" lon="6.31365">
        <ele>265.46</ele>
        <time>2016-03-18T08:04:01Z</time>
      </trkpt>
      <trkpt lat="43.49193" lon="6.31364">
        <ele>265.46</ele>
        <time>2016-03-18T08:04:02Z</time>
      </trkpt>
      <trkpt lat="43.49194" lon="6.31357">
        <ele>266.42</ele>
        <time>2016-03-18T08:04:07Z</time>
      </trkpt>
      <trkpt lat="43.49194" lon="6.31354">
        <ele>266.9</ele>
        <time>2016-03-18T08:04:09Z</time>
      </trkpt>
      <trkpt lat="43.49195" lon="6.3135">
        <ele>267.38</ele>
        <time>2016-03-18T08:04:12Z</time>
      </trkpt>
      <trkpt lat="43.49192" lon="6.31329">
        <ele>268.83</ele>
        <time>2016-03-18T08:04:26Z</time>
      </trkpt>
      <trkpt lat="43.49191" lon="6.31325">
        <ele>269.31</ele>
        <time>2016-03-18T08:04:30Z</time>
      </trkpt>
      <trkpt lat="43.49191" lon="6.31322">
        <ele>269.31</ele>
        <time>2016-03-18T08:04:32Z</time>
      </trkpt>
      <trkpt lat="43.49186" lon="6.31306">
        <ele>270.75</ele>
        <time>2016-03-18T08:04:46Z</time>
      </trkpt>
      <trkpt lat="43.4918" lon="6.31283">
        <ele>271.71</ele>
        <time>2016-03-18T08:05:00Z</time>
      </trkpt>
      <trkpt lat="43.49169" lon="6.31272">
        <ele>272.19</ele>
        <time>2016-03-18T08:05:13Z</time>
      </trkpt>
      <trkpt lat="43.49165" lon="6.31272">
        <ele>272.19</ele>
        <time>2016-03-18T08:05:33Z</time>
      </trkpt>
      <trkpt lat="43.49164" lon="6.3127">
        <ele>272.19</ele>
        <time>2016-03-18T08:05:42Z</time>
      </trkpt>
      <trkpt lat="43.49162" lon="6.31271">
        <ele>272.67</ele>
        <time>2016-03-18T08:05:44Z</time>
      </trkpt>
      <trkpt lat="43.49158" lon="6.31273">
        <ele>272.19</ele>
        <time>2016-03-18T08:05:48Z</time>
      </trkpt>
      <trkpt lat="43.49154" lon="6.31273">
        <ele>272.67</ele>
        <time>2016-03-18T08:05:55Z</time>
      </trkpt>
      <trkpt lat="43.4915" lon="6.31268">
        <ele>272.67</ele>
        <time>2016-03-18T08:06:09Z</time>
      </trkpt>
      <trkpt lat="43.49149" lon="6.31266">
        <ele>272.67</ele>
        <time>2016-03-18T08:06:34Z</time>
      </trkpt>
      <trkpt lat="43.49149" lon="6.31266">
        <ele>273.15</ele>
        <time>2016-03-18T08:07:02Z</time>
      </trkpt>
      <trkpt lat="43.49149" lon="6.31264">
        <ele>272.67</ele>
        <time>2016-03-18T08:07:18Z</time>
      </trkpt>
      <trkpt lat="43.4915" lon="6.31265">
        <ele>273.15</ele>
        <time>2016-03-18T08:07:54Z</time>
      </trkpt>
      <trkpt lat="43.49149" lon="6.31267">
        <ele>273.15</ele>
        <time>2016-03-18T08:07:56Z</time>
      </trkpt>
      <trkpt lat="43.49151" lon="6.31271">
        <ele>273.15</ele>
        <time>2016-03-18T08:08:00Z</time>
      </trkpt>
      <trkpt lat="43.49151" lon="6.3128">
        <ele>273.15</ele>
        <time>2016-03-18T08:08:11Z</time>
      </trkpt>
      <trkpt lat="43.49149" lon="6.31283">
        <ele>273.15</ele>
        <time>2016-03-18T08:08:14Z</time>
      </trkpt>
      <trkpt lat="43.49142" lon="6.31288">
        <ele>273.15</ele>
        <time>2016-03-18T08:08:22Z</time>
      </trkpt>
      <trkpt lat="43.49126" lon="6.31297">
        <ele>274.11</ele>
        <time>2016-03-18T08:08:38Z</time>
      </trkpt>
      <trkpt lat="43.49117" lon="6.31298">
        <ele>274.59</ele>
        <time>2016-03-18T08:08:51Z</time>
      </trkpt>
      <trkpt lat="43.49117" lon="6.313">
        <ele>274.59</ele>
        <time>2016-03-18T08:09:16Z</time>
      </trkpt>
      <trkpt lat="43.49114" lon="6.313">
        <ele>274.59</ele>
        <time>2016-03-18T08:09:39Z</time>
      </trkpt>
      <trkpt lat="43.49113" lon="6.313">
        <ele>275.07</ele>
        <time>2016-03-18T08:09:54Z</time>
      </trkpt>
      <trkpt lat="43.49113" lon="6.31301">
        <ele>275.07</ele>
        <time>2016-03-18T08:10:12Z</time>
      </trkpt>
      <trkpt lat="43.49113" lon="6.31301">
        <ele>275.07</ele>
        <time>2016-03-18T08:10:32Z</time>
      </trkpt>
      <trkpt lat="43.49112" lon="6.31303">
        <ele>274.59</ele>
        <time>2016-03-18T08:11:08Z</time>
      </trkpt>
      <trkpt lat="43.49113" lon="6.31303">
        <ele>275.07</ele>
        <time>2016-03-18T08:11:44Z</time>
      </trkpt>
      <trkpt lat="43.49112" lon="6.31303">
        <ele>275.07</ele>
        <time>2016-03-18T08:12:19Z</time>
      </trkpt>
      <trkpt lat="43.49112" lon="6.31302">
        <ele>275.07</ele>
        <time>2016-03-18T08:12:53Z</time>
      </trkpt>
      <trkpt lat="43.49113" lon="6.31302">
        <ele>275.07</ele>
        <time>2016-03-18T08:13:24Z</time>
      </trkpt>
      <trkpt lat="43.49113" lon="6.31302">
        <ele>275.07</ele>
        <time>2016-03-18T08:13:55Z</time>
      </trkpt>
      <trkpt lat="43.49112" lon="6.31302">
        <ele>274.59</ele>
        <time>2016-03-18T08:14:33Z</time>
      </trkpt>
      <trkpt lat="43.49112" lon="6.31302">
        <ele>275.07</ele>
        <time>2016-03-18T08:15:09Z</time>
      </trkpt>
      <trkpt lat="43.49112" lon="6.31302">
        <ele>275.07</ele>
        <time>2016-03-18T08:15:40Z</time>
      </trkpt>
      <trkpt lat="43.49112" lon="6.31302">
        <ele>275.07</ele>
        <time>2016-03-18T08:15:58Z</time>
      </trkpt>
      <trkpt lat="43.49112" lon="6.31301">
        <ele>275.07</ele>
        <time>2016-03-18T08:16:30Z</time>
      </trkpt>
      <trkpt lat="43.49112" lon="6.31301">
        <ele>275.07</ele>
        <time>2016-03-18T08:16:48Z</time>
      </trkpt>
      <trkpt lat="43.49111" lon="6.31304">
        <ele>275.07</ele>
        <time>2016-03-18T08:16:56Z</time>
      </trkpt>
      <trkpt lat="43.4911" lon="6.31306">
        <ele>275.07</ele>
        <time>2016-03-18T08:16:58Z</time>
      </trkpt>
      <trkpt lat="43.49106" lon="6.3131">
        <ele>275.07</ele>
        <time>2016-03-18T08:17:05Z</time>
      </trkpt>
      <trkpt lat="43.49095" lon="6.31317">
        <ele>275.56</ele>
        <time>2016-03-18T08:17:17Z</time>
      </trkpt>
      <trkpt lat="43.49093" lon="6.31318">
        <ele>275.56</ele>
        <time>2016-03-18T08:17:19Z</time>
      </trkpt>
      <trkpt lat="43.49078" lon="6.31325">
        <ele>276.04</ele>
        <time>2016-03-18T08:17:34Z</time>
      </trkpt>
      <trkpt lat="43.49071" lon="6.31329">
        <ele>276.04</ele>
        <time>2016-03-18T08:17:42Z</time>
      </trkpt>
      <trkpt lat="43.49066" lon="6.31327">
        <ele>276.04</ele>
        <time>2016-03-18T08:17:45Z</time>
      </trkpt>
      <trkpt lat="43.49062" lon="6.31329">
        <ele>276.52</ele>
        <time>2016-03-18T08:17:49Z</time>
      </trkpt>
      <trkpt lat="43.49058" lon="6.31332">
        <ele>276.52</ele>
        <time>2016-03-18T08:17:53Z</time>
      </trkpt>
      <trkpt lat="43.49051" lon="6.31335">
        <ele>277</ele>
        <time>2016-03-18T08:17:59Z</time>
      </trkpt>
      <trkpt lat="43.49034" lon="6.31344">
        <ele>277.48</ele>
        <time>2016-03-18T08:18:14Z</time>
      </trkpt>
      <trkpt lat="43.49024" lon="6.31348">
        <ele>277.48</ele>
        <time>2016-03-18T08:18:23Z</time>
      </trkpt>
      <trkpt lat="43.49013" lon="6.31356">
        <ele>277.48</ele>
        <time>2016-03-18T08:18:34Z</time>
      </trkpt>
      <trkpt lat="43.49011" lon="6.31357">
        <ele>277.48</ele>
        <time>2016-03-18T08:18:36Z</time>
      </trkpt>
      <trkpt lat="43.48995" lon="6.31366">
        <ele>277.96</ele>
        <time>2016-03-18T08:18:52Z</time>
      </trkpt>
      <trkpt lat="43.48992" lon="6.31367">
        <ele>278.44</ele>
        <time>2016-03-18T08:18:55Z</time>
      </trkpt>
      <trkpt lat="43.48985" lon="6.3137">
        <ele>278.92</ele>
        <time>2016-03-18T08:19:02Z</time>
      </trkpt>
      <trkpt lat="43.48982" lon="6.31371">
        <ele>278.92</ele>
        <time>2016-03-18T08:19:05Z</time>
      </trkpt>
      <trkpt lat="43.48975" lon="6.31374">
        <ele>279.4</ele>
        <time>2016-03-18T08:19:11Z</time>
      </trkpt>
      <trkpt lat="43.48972" lon="6.31377">
        <ele>279.4</ele>
        <time>2016-03-18T08:19:15Z</time>
      </trkpt>
      <trkpt lat="43.4897" lon="6.31381">
        <ele>279.4</ele>
        <time>2016-03-18T08:19:18Z</time>
      </trkpt>
      <trkpt lat="43.48964" lon="6.314">
        <ele>280.84</ele>
        <time>2016-03-18T08:19:32Z</time>
      </trkpt>
      <trkpt lat="43.4896" lon="6.31405">
        <ele>279.88</ele>
        <time>2016-03-18T08:19:37Z</time>
      </trkpt>
      <trkpt lat="43.48954" lon="6.31409">
        <ele>280.36</ele>
        <time>2016-03-18T08:19:42Z</time>
      </trkpt>
      <trkpt lat="43.4894" lon="6.3142">
        <ele>280.36</ele>
        <time>2016-03-18T08:19:55Z</time>
      </trkpt>
      <trkpt lat="43.48926" lon="6.31427">
        <ele>280.36</ele>
        <time>2016-03-18T08:20:09Z</time>
      </trkpt>
      <trkpt lat="43.4892" lon="6.3143">
        <ele>279.88</ele>
        <time>2016-03-18T08:20:17Z</time>
      </trkpt>
      <trkpt lat="43.48906" lon="6.31443">
        <ele>279.4</ele>
        <time>2016-03-18T08:20:33Z</time>
      </trkpt>
      <trkpt lat="43.48892" lon="6.31457">
        <ele>278.92</ele>
        <time>2016-03-18T08:20:48Z</time>
      </trkpt>
      <trkpt lat="43.48879" lon="6.31468">
        <ele>278.44</ele>
        <time>2016-03-18T08:21:01Z</time>
      </trkpt>
      <trkpt lat="43.4887" lon="6.31475">
        <ele>278.44</ele>
        <time>2016-03-18T08:21:11Z</time>
      </trkpt>
      <trkpt lat="43.48852" lon="6.3149">
        <ele>277.96</ele>
        <time>2016-03-18T08:21:27Z</time>
      </trkpt>
      <trkpt lat="43.48835" lon="6.31501">
        <ele>277</ele>
        <time>2016-03-18T08:21:42Z</time>
      </trkpt>
      <trkpt lat="43.48823" lon="6.31507">
        <ele>276.52</ele>
        <time>2016-03-18T08:21:55Z</time>
      </trkpt>
      <trkpt lat="43.48822" lon="6.31508">
        <ele>276.04</ele>
        <time>2016-03-18T08:21:56Z</time>
      </trkpt>
      <trkpt lat="43.48811" lon="6.31513">
        <ele>275.56</ele>
        <time>2016-03-18T08:22:06Z</time>
      </trkpt>
      <trkpt lat="43.48795" lon="6.31522">
        <ele>274.59</ele>
        <time>2016-03-18T08:22:20Z</time>
      </trkpt>
      <trkpt lat="43.4879" lon="6.31526">
        <ele>274.11</ele>
        <time>2016-03-18T08:22:25Z</time>
      </trkpt>
      <trkpt lat="43.48783" lon="6.3153">
        <ele>273.63</ele>
        <time>2016-03-18T08:22:32Z</time>
      </trkpt>
      <trkpt lat="43.48773" lon="6.31535">
        <ele>272.67</ele>
        <time>2016-03-18T08:22:41Z</time>
      </trkpt>
      <trkpt lat="43.48768" lon="6.31536">
        <ele>272.67</ele>
        <time>2016-03-18T08:22:46Z</time>
      </trkpt>
      <trkpt lat="43.48753" lon="6.31541">
        <ele>271.71</ele>
        <time>2016-03-18T08:23:00Z</time>
      </trkpt>
      <trkpt lat="43.48748" lon="6.31544">
        <ele>271.71</ele>
        <time>2016-03-18T08:23:06Z</time>
      </trkpt>
      <trkpt lat="43.48741" lon="6.31545">
        <ele>271.71</ele>
        <time>2016-03-18T08:23:19Z</time>
      </trkpt>
      <trkpt lat="43.48738" lon="6.31547">
        <ele>272.19</ele>
        <time>2016-03-18T08:23:26Z</time>
      </trkpt>
      <trkpt lat="43.48738" lon="6.31545">
        <ele>272.19</ele>
        <time>2016-03-18T08:23:37Z</time>
      </trkpt>
      <trkpt lat="43.4873" lon="6.31545">
        <ele>272.19</ele>
        <time>2016-03-18T08:23:44Z</time>
      </trkpt>
      <trkpt lat="43.48724" lon="6.31544">
        <ele>272.67</ele>
        <time>2016-03-18T08:23:49Z</time>
      </trkpt>
      <trkpt lat="43.48709" lon="6.31545">
        <ele>275.07</ele>
        <time>2016-03-18T08:24:04Z</time>
      </trkpt>
      <trkpt lat="43.48707" lon="6.31544">
        <ele>275.07</ele>
        <time>2016-03-18T08:24:31Z</time>
      </trkpt>
      <trkpt lat="43.48703" lon="6.31544">
        <ele>276.04</ele>
        <time>2016-03-18T08:24:43Z</time>
      </trkpt>
      <trkpt lat="43.48694" lon="6.31544">
        <ele>277</ele>
        <time>2016-03-18T08:24:49Z</time>
      </trkpt>
      <trkpt lat="43.48688" lon="6.31549">
        <ele>278.92</ele>
        <time>2016-03-18T08:24:56Z</time>
      </trkpt>
      <trkpt lat="43.48687" lon="6.3155">
        <ele>277</ele>
        <time>2016-03-18T08:24:58Z</time>
      </trkpt>
      <trkpt lat="43.48684" lon="6.31552">
        <ele>276.52</ele>
        <time>2016-03-18T08:25:01Z</time>
      </trkpt>
      <trkpt lat="43.48683" lon="6.31553">
        <ele>279.88</ele>
        <time>2016-03-18T08:25:02Z</time>
      </trkpt>
      <trkpt lat="43.48669" lon="6.31561">
        <ele>281.8</ele>
        <time>2016-03-18T08:25:15Z</time>
      </trkpt>
      <trkpt lat="43.4866" lon="6.31565">
        <ele>285.65</ele>
        <time>2016-03-18T08:25:24Z</time>
      </trkpt>
      <trkpt lat="43.4865" lon="6.3157">
        <ele>283.73</ele>
        <time>2016-03-18T08:25:33Z</time>
      </trkpt>
      <trkpt lat="43.48643" lon="6.31575">
        <ele>284.69</ele>
        <time>2016-03-18T08:25:39Z</time>
      </trkpt>
      <trkpt lat="43.48632" lon="6.31587">
        <ele>285.17</ele>
        <time>2016-03-18T08:25:52Z</time>
      </trkpt>
      <trkpt lat="43.4862" lon="6.31605">
        <ele>285.17</ele>
        <time>2016-03-18T08:26:06Z</time>
      </trkpt>
      <trkpt lat="43.48619" lon="6.31606">
        <ele>285.17</ele>
        <time>2016-03-18T08:26:07Z</time>
      </trkpt>
      <trkpt lat="43.48616" lon="6.31612">
        <ele>285.17</ele>
        <time>2016-03-18T08:26:11Z</time>
      </trkpt>
      <trkpt lat="43.48609" lon="6.31631">
        <ele>285.17</ele>
        <time>2016-03-18T08:26:25Z</time>
      </trkpt>
      <trkpt lat="43.48604" lon="6.31637">
        <ele>285.17</ele>
        <time>2016-03-18T08:26:31Z</time>
      </trkpt>
      <trkpt lat="43.486" lon="6.31643">
        <ele>284.69</ele>
        <time>2016-03-18T08:26:38Z</time>
      </trkpt>
      <trkpt lat="43.48598" lon="6.31645">
        <ele>284.69</ele>
        <time>2016-03-18T08:26:40Z</time>
      </trkpt>
      <trkpt lat="43.48594" lon="6.31651">
        <ele>284.69</ele>
        <time>2016-03-18T08:26:44Z</time>
      </trkpt>
      <trkpt lat="43.4859" lon="6.31656">
        <ele>284.21</ele>
        <time>2016-03-18T08:26:48Z</time>
      </trkpt>
      <trkpt lat="43.4858" lon="6.31673">
        <ele>283.73</ele>
        <time>2016-03-18T08:27:00Z</time>
      </trkpt>
      <trkpt lat="43.48573" lon="6.31685">
        <ele>282.77</ele>
        <time>2016-03-18T08:27:13Z</time>
      </trkpt>
      <trkpt lat="43.4857" lon="6.3169">
        <ele>282.28</ele>
        <time>2016-03-18T08:27:26Z</time>
      </trkpt>
      <trkpt lat="43.48568" lon="6.31697">
        <ele>281.8</ele>
        <time>2016-03-18T08:27:31Z</time>
      </trkpt>
      <trkpt lat="43.48566" lon="6.31701">
        <ele>281.8</ele>
        <time>2016-03-18T08:27:34Z</time>
      </trkpt>
      <trkpt lat="43.48563" lon="6.31705">
        <ele>281.32</ele>
        <time>2016-03-18T08:27:37Z</time>
      </trkpt>
      <trkpt lat="43.48559" lon="6.31718">
        <ele>280.36</ele>
        <time>2016-03-18T08:27:50Z</time>
      </trkpt>
      <trkpt lat="43.48558" lon="6.31722">
        <ele>280.84</ele>
        <time>2016-03-18T08:28:16Z</time>
      </trkpt>
      <trkpt lat="43.48558" lon="6.31725">
        <ele>280.36</ele>
        <time>2016-03-18T08:28:38Z</time>
      </trkpt>
      <trkpt lat="43.48558" lon="6.31725">
        <ele>280.36</ele>
        <time>2016-03-18T08:28:45Z</time>
      </trkpt>
      <trkpt lat="43.4856" lon="6.31733">
        <ele>280.36</ele>
        <time>2016-03-18T08:28:57Z</time>
      </trkpt>
      <trkpt lat="43.48555" lon="6.31737">
        <ele>279.88</ele>
        <time>2016-03-18T08:29:03Z</time>
      </trkpt>
      <trkpt lat="43.48553" lon="6.31755">
        <ele>278.92</ele>
        <time>2016-03-18T08:29:17Z</time>
      </trkpt>
      <trkpt lat="43.48554" lon="6.3176">
        <ele>278.44</ele>
        <time>2016-03-18T08:29:20Z</time>
      </trkpt>
      <trkpt lat="43.48556" lon="6.31775">
        <ele>278.44</ele>
        <time>2016-03-18T08:29:34Z</time>
      </trkpt>
      <trkpt lat="43.48558" lon="6.31779">
        <ele>277.96</ele>
        <time>2016-03-18T08:29:36Z</time>
      </trkpt>
      <trkpt lat="43.48551" lon="6.318">
        <ele>277.96</ele>
        <time>2016-03-18T08:29:52Z</time>
      </trkpt>
      <trkpt lat="43.48546" lon="6.31813">
        <ele>278.44</ele>
        <time>2016-03-18T08:30:03Z</time>
      </trkpt>
      <trkpt lat="43.48539" lon="6.31824">
        <ele>279.4</ele>
        <time>2016-03-18T08:30:14Z</time>
      </trkpt>
      <trkpt lat="43.48538" lon="6.31837">
        <ele>279.88</ele>
        <time>2016-03-18T08:30:22Z</time>
      </trkpt>
      <trkpt lat="43.48536" lon="6.31848">
        <ele>280.84</ele>
        <time>2016-03-18T08:30:31Z</time>
      </trkpt>
      <trkpt lat="43.48541" lon="6.31861">
        <ele>281.32</ele>
        <time>2016-03-18T08:30:40Z</time>
      </trkpt>
      <trkpt lat="43.48542" lon="6.3187">
        <ele>281.8</ele>
        <time>2016-03-18T08:30:46Z</time>
      </trkpt>
      <trkpt lat="43.48544" lon="6.31878">
        <ele>281.8</ele>
        <time>2016-03-18T08:30:50Z</time>
      </trkpt>
      <trkpt lat="43.48547" lon="6.31886">
        <ele>281.8</ele>
        <time>2016-03-18T08:30:57Z</time>
      </trkpt>
      <trkpt lat="43.4855" lon="6.31895">
        <ele>281.8</ele>
        <time>2016-03-18T08:31:03Z</time>
      </trkpt>
      <trkpt lat="43.48555" lon="6.31916">
        <ele>282.28</ele>
        <time>2016-03-18T08:31:20Z</time>
      </trkpt>
      <trkpt lat="43.48555" lon="6.31923">
        <ele>282.28</ele>
        <time>2016-03-18T08:31:26Z</time>
      </trkpt>
      <trkpt lat="43.48556" lon="6.31933">
        <ele>282.28</ele>
        <time>2016-03-18T08:31:34Z</time>
      </trkpt>
      <trkpt lat="43.48547" lon="6.3194">
        <ele>283.73</ele>
        <time>2016-03-18T08:31:47Z</time>
      </trkpt>
      <trkpt lat="43.48545" lon="6.31945">
        <ele>284.21</ele>
        <time>2016-03-18T08:32:06Z</time>
      </trkpt>
      <trkpt lat="43.48545" lon="6.31945">
        <ele>283.73</ele>
        <time>2016-03-18T08:32:22Z</time>
      </trkpt>
      <trkpt lat="43.48545" lon="6.31946">
        <ele>283.73</ele>
        <time>2016-03-18T08:32:40Z</time>
      </trkpt>
      <trkpt lat="43.48545" lon="6.31949">
        <ele>284.21</ele>
        <time>2016-03-18T08:32:56Z</time>
      </trkpt>
      <trkpt lat="43.48546" lon="6.3195">
        <ele>283.73</ele>
        <time>2016-03-18T08:33:13Z</time>
      </trkpt>
      <trkpt lat="43.48549" lon="6.31949">
        <ele>282.77</ele>
        <time>2016-03-18T08:33:34Z</time>
      </trkpt>
      <trkpt lat="43.48557" lon="6.31943">
        <ele>282.28</ele>
        <time>2016-03-18T08:33:45Z</time>
      </trkpt>
      <trkpt lat="43.4856" lon="6.31939">
        <ele>281.8</ele>
        <time>2016-03-18T08:34:06Z</time>
      </trkpt>
      <trkpt lat="43.48562" lon="6.31931">
        <ele>281.8</ele>
        <time>2016-03-18T08:34:37Z</time>
      </trkpt>
      <trkpt lat="43.48562" lon="6.31929">
        <ele>281.8</ele>
        <time>2016-03-18T08:34:39Z</time>
      </trkpt>
      <trkpt lat="43.4856" lon="6.3191">
        <ele>281.32</ele>
        <time>2016-03-18T08:34:53Z</time>
      </trkpt>
      <trkpt lat="43.48559" lon="6.31888">
        <ele>281.32</ele>
        <time>2016-03-18T08:35:09Z</time>
      </trkpt>
      <trkpt lat="43.48553" lon="6.31879">
        <ele>281.32</ele>
        <time>2016-03-18T08:35:17Z</time>
      </trkpt>
      <trkpt lat="43.48546" lon="6.31858">
        <ele>281.32</ele>
        <time>2016-03-18T08:35:33Z</time>
      </trkpt>
      <trkpt lat="43.48541" lon="6.31852">
        <ele>279.88</ele>
        <time>2016-03-18T08:35:39Z</time>
      </trkpt>
      <trkpt lat="43.48543" lon="6.31849">
        <ele>279.4</ele>
        <time>2016-03-18T08:35:42Z</time>
      </trkpt>
      <trkpt lat="43.48545" lon="6.31826">
        <ele>278.44</ele>
        <time>2016-03-18T08:35:58Z</time>
      </trkpt>
      <trkpt lat="43.48549" lon="6.3182">
        <ele>277.96</ele>
        <time>2016-03-18T08:36:08Z</time>
      </trkpt>
      <trkpt lat="43.48559" lon="6.31806">
        <ele>277.48</ele>
        <time>2016-03-18T08:36:24Z</time>
      </trkpt>
      <trkpt lat="43.4856" lon="6.31782">
        <ele>277.48</ele>
        <time>2016-03-18T08:36:40Z</time>
      </trkpt>
      <trkpt lat="43.4856" lon="6.3176">
        <ele>277.96</ele>
        <time>2016-03-18T08:36:54Z</time>
      </trkpt>
      <trkpt lat="43.4856" lon="6.31744">
        <ele>278.92</ele>
        <time>2016-03-18T08:37:08Z</time>
      </trkpt>
      <trkpt lat="43.48558" lon="6.31739">
        <ele>279.4</ele>
        <time>2016-03-18T08:37:23Z</time>
      </trkpt>
      <trkpt lat="43.4856" lon="6.31735">
        <ele>279.4</ele>
        <time>2016-03-18T08:37:37Z</time>
      </trkpt>
      <trkpt lat="43.48561" lon="6.31733">
        <ele>279.88</ele>
        <time>2016-03-18T08:37:52Z</time>
      </trkpt>
      <trkpt lat="43.48561" lon="6.31732">
        <ele>279.88</ele>
        <time>2016-03-18T08:37:57Z</time>
      </trkpt>
      <trkpt lat="43.48559" lon="6.31733">
        <ele>279.88</ele>
        <time>2016-03-18T08:38:11Z</time>
      </trkpt>
      <trkpt lat="43.48557" lon="6.31735">
        <ele>279.4</ele>
        <time>2016-03-18T08:38:15Z</time>
      </trkpt>
      <trkpt lat="43.48555" lon="6.31736">
        <ele>278.92</ele>
        <time>2016-03-18T08:38:17Z</time>
      </trkpt>
      <trkpt lat="43.48556" lon="6.31736">
        <ele>279.4</ele>
        <time>2016-03-18T08:38:31Z</time>
      </trkpt>
      <trkpt lat="43.48559" lon="6.31731">
        <ele>279.88</ele>
        <time>2016-03-18T08:38:47Z</time>
      </trkpt>
      <trkpt lat="43.48556" lon="6.31725">
        <ele>279.88</ele>
        <time>2016-03-18T08:38:59Z</time>
      </trkpt>
      <trkpt lat="43.48554" lon="6.31727">
        <ele>279.4</ele>
        <time>2016-03-18T08:39:11Z</time>
      </trkpt>
      <trkpt lat="43.48554" lon="6.31727">
        <ele>279.4</ele>
        <time>2016-03-18T08:39:17Z</time>
      </trkpt>
      <trkpt lat="43.48555" lon="6.31728">
        <ele>279.4</ele>
        <time>2016-03-18T08:39:28Z</time>
      </trkpt>
      <trkpt lat="43.48552" lon="6.3173">
        <ele>279.4</ele>
        <time>2016-03-18T08:39:40Z</time>
      </trkpt>
      <trkpt lat="43.48543" lon="6.31744">
        <ele>277.96</ele>
        <time>2016-03-18T08:39:53Z</time>
      </trkpt>
      <trkpt lat="43.48537" lon="6.31754">
        <ele>277.48</ele>
        <time>2016-03-18T08:40:02Z</time>
      </trkpt>
      <trkpt lat="43.48532" lon="6.31762">
        <ele>276.52</ele>
        <time>2016-03-18T08:40:09Z</time>
      </trkpt>
      <trkpt lat="43.4852" lon="6.31774">
        <ele>276.04</ele>
        <time>2016-03-18T08:40:23Z</time>
      </trkpt>
      <trkpt lat="43.48508" lon="6.31786">
        <ele>275.56</ele>
        <time>2016-03-18T08:40:36Z</time>
      </trkpt>
      <trkpt lat="43.48498" lon="6.31797">
        <ele>274.59</ele>
        <time>2016-03-18T08:40:47Z</time>
      </trkpt>
      <trkpt lat="43.4849" lon="6.31808">
        <ele>273.63</ele>
        <time>2016-03-18T08:41:00Z</time>
      </trkpt>
      <trkpt lat="43.48481" lon="6.31821">
        <ele>272.19</ele>
        <time>2016-03-18T08:41:13Z</time>
      </trkpt>
      <trkpt lat="43.48473" lon="6.31842">
        <ele>270.75</ele>
        <time>2016-03-18T08:41:27Z</time>
      </trkpt>
      <trkpt lat="43.48465" lon="6.3185">
        <ele>268.35</ele>
        <time>2016-03-18T08:41:39Z</time>
      </trkpt>
      <trkpt lat="43.48463" lon="6.31853">
        <ele>267.86</ele>
        <time>2016-03-18T08:41:42Z</time>
      </trkpt>
      <trkpt lat="43.48454" lon="6.31871">
        <ele>264.98</ele>
        <time>2016-03-18T08:41:58Z</time>
      </trkpt>
      <trkpt lat="43.48446" lon="6.31874">
        <ele>262.1</ele>
        <time>2016-03-18T08:42:12Z</time>
      </trkpt>
      <trkpt lat="43.48436" lon="6.31878">
        <ele>259.21</ele>
        <time>2016-03-18T08:42:27Z</time>
      </trkpt>
      <trkpt lat="43.4843" lon="6.31878">
        <ele>256.33</ele>
        <time>2016-03-18T08:42:41Z</time>
      </trkpt>
      <trkpt lat="43.48421" lon="6.31879">
        <ele>253.93</ele>
        <time>2016-03-18T08:42:53Z</time>
      </trkpt>
      <trkpt lat="43.48413" lon="6.31878">
        <ele>251.04</ele>
        <time>2016-03-18T08:43:05Z</time>
      </trkpt>
      <trkpt lat="43.48407" lon="6.31877">
        <ele>248.16</ele>
        <time>2016-03-18T08:43:18Z</time>
      </trkpt>
      <trkpt lat="43.48402" lon="6.31878">
        <ele>244.79</ele>
        <time>2016-03-18T08:43:32Z</time>
      </trkpt>
      <trkpt lat="43.48394" lon="6.31875">
        <ele>241.91</ele>
        <time>2016-03-18T08:43:46Z</time>
      </trkpt>
      <trkpt lat="43.48393" lon="6.31874">
        <ele>240.95</ele>
        <time>2016-03-18T08:43:48Z</time>
      </trkpt>
      <trkpt lat="43.48387" lon="6.31874">
        <ele>238.06</ele>
        <time>2016-03-18T08:44:00Z</time>
      </trkpt>
      <trkpt lat="43.48378" lon="6.31871">
        <ele>235.18</ele>
        <time>2016-03-18T08:44:11Z</time>
      </trkpt>
      <trkpt lat="43.48369" lon="6.3187">
        <ele>232.3</ele>
        <time>2016-03-18T08:44:25Z</time>
      </trkpt>
      <trkpt lat="43.48363" lon="6.3187">
        <ele>229.41</ele>
        <time>2016-03-18T08:44:36Z</time>
      </trkpt>
      <trkpt lat="43.48357" lon="6.31868">
        <ele>226.53</ele>
        <time>2016-03-18T08:44:50Z</time>
      </trkpt>
      <trkpt lat="43.48349" lon="6.31868">
        <ele>223.64</ele>
        <time>2016-03-18T08:45:00Z</time>
      </trkpt>
      <trkpt lat="43.48333" lon="6.31868">
        <ele>220.28</ele>
        <time>2016-03-18T08:45:14Z</time>
      </trkpt>
      <trkpt lat="43.48321" lon="6.31866">
        <ele>217.4</ele>
        <time>2016-03-18T08:45:28Z</time>
      </trkpt>
      <trkpt lat="43.48309" lon="6.3187">
        <ele>214.99</ele>
        <time>2016-03-18T08:45:43Z</time>
      </trkpt>
      <trkpt lat="43.48307" lon="6.31871">
        <ele>214.51</ele>
        <time>2016-03-18T08:45:45Z</time>
      </trkpt>
      <trkpt lat="43.483" lon="6.31869">
        <ele>213.07</ele>
        <time>2016-03-18T08:45:59Z</time>
      </trkpt>
      <trkpt lat="43.48297" lon="6.31872">
        <ele>214.03</ele>
        <time>2016-03-18T08:46:12Z</time>
      </trkpt>
      <trkpt lat="43.48296" lon="6.31872">
        <ele>212.59</ele>
        <time>2016-03-18T08:46:29Z</time>
      </trkpt>
      <trkpt lat="43.48298" lon="6.31873">
        <ele>212.59</ele>
        <time>2016-03-18T08:46:43Z</time>
      </trkpt>
      <trkpt lat="43.48298" lon="6.31872">
        <ele>212.11</ele>
        <time>2016-03-18T08:46:55Z</time>
      </trkpt>
      <trkpt lat="43.48288" lon="6.31868">
        <ele>209.7</ele>
        <time>2016-03-18T08:47:06Z</time>
      </trkpt>
      <trkpt lat="43.48281" lon="6.31864">
        <ele>208.74</ele>
        <time>2016-03-18T08:47:14Z</time>
      </trkpt>
      <trkpt lat="43.48275" lon="6.3186">
        <ele>209.22</ele>
        <time>2016-03-18T08:47:20Z</time>
      </trkpt>
      <trkpt lat="43.48267" lon="6.31849">
        <ele>206.82</ele>
        <time>2016-03-18T08:47:32Z</time>
      </trkpt>
      <trkpt lat="43.48257" lon="6.31836">
        <ele>204.42</ele>
        <time>2016-03-18T08:47:45Z</time>
      </trkpt>
      <trkpt lat="43.48243" lon="6.31817">
        <ele>202.98</ele>
        <time>2016-03-18T08:48:03Z</time>
      </trkpt>
      <trkpt lat="43.48236" lon="6.3181">
        <ele>202.98</ele>
        <time>2016-03-18T08:48:09Z</time>
      </trkpt>
      <trkpt lat="43.48228" lon="6.31808">
        <ele>202.98</ele>
        <time>2016-03-18T08:48:15Z</time>
      </trkpt>
      <trkpt lat="43.48212" lon="6.31805">
        <ele>202.98</ele>
        <time>2016-03-18T08:48:26Z</time>
      </trkpt>
      <trkpt lat="43.48199" lon="6.31801">
        <ele>203.94</ele>
        <time>2016-03-18T08:48:38Z</time>
      </trkpt>
      <trkpt lat="43.48183" lon="6.31795">
        <ele>202.49</ele>
        <time>2016-03-18T08:48:52Z</time>
      </trkpt>
      <trkpt lat="43.48169" lon="6.31792">
        <ele>200.09</ele>
        <time>2016-03-18T08:49:07Z</time>
      </trkpt>
      <trkpt lat="43.48152" lon="6.31787">
        <ele>197.21</ele>
        <time>2016-03-18T08:49:23Z</time>
      </trkpt>
      <trkpt lat="43.48134" lon="6.31787">
        <ele>194.8</ele>
        <time>2016-03-18T08:49:38Z</time>
      </trkpt>
      <trkpt lat="43.48123" lon="6.31788">
        <ele>193.36</ele>
        <time>2016-03-18T08:49:48Z</time>
      </trkpt>
      <trkpt lat="43.48119" lon="6.31791">
        <ele>192.88</ele>
        <time>2016-03-18T08:49:59Z</time>
      </trkpt>
      <trkpt lat="43.48119" lon="6.31791">
        <ele>192.88</ele>
        <time>2016-03-18T08:50:01Z</time>
      </trkpt>
      <trkpt lat="43.48113" lon="6.31794">
        <ele>191.92</ele>
        <time>2016-03-18T08:50:06Z</time>
      </trkpt>
      <trkpt lat="43.48104" lon="6.31803">
        <ele>190</ele>
        <time>2016-03-18T08:50:20Z</time>
      </trkpt>
      <trkpt lat="43.48105" lon="6.31805">
        <ele>190.48</ele>
        <time>2016-03-18T08:50:35Z</time>
      </trkpt>
      <trkpt lat="43.48105" lon="6.31806">
        <ele>190</ele>
        <time>2016-03-18T08:50:46Z</time>
      </trkpt>
      <trkpt lat="43.48102" lon="6.3181">
        <ele>190</ele>
        <time>2016-03-18T08:51:04Z</time>
      </trkpt>
      <trkpt lat="43.48102" lon="6.31812">
        <ele>189.52</ele>
        <time>2016-03-18T08:51:17Z</time>
      </trkpt>
      <trkpt lat="43.48103" lon="6.31813">
        <ele>190</ele>
        <time>2016-03-18T08:51:34Z</time>
      </trkpt>
      <trkpt lat="43.48107" lon="6.31814">
        <ele>189.52</ele>
        <time>2016-03-18T08:51:37Z</time>
      </trkpt>
      <trkpt lat="43.48111" lon="6.31819">
        <ele>189.52</ele>
        <time>2016-03-18T08:51:41Z</time>
      </trkpt>
      <trkpt lat="43.48118" lon="6.31822">
        <ele>188.08</ele>
        <time>2016-03-18T08:51:47Z</time>
      </trkpt>
      <trkpt lat="43.48127" lon="6.31831">
        <ele>185.67</ele>
        <time>2016-03-18T08:51:57Z</time>
      </trkpt>
      <trkpt lat="43.48128" lon="6.31837">
        <ele>184.23</ele>
        <time>2016-03-18T08:52:02Z</time>
      </trkpt>
      <trkpt lat="43.48129" lon="6.3184">
        <ele>183.75</ele>
        <time>2016-03-18T08:52:04Z</time>
      </trkpt>
      <trkpt lat="43.48129" lon="6.31846">
        <ele>182.79</ele>
        <time>2016-03-18T08:52:08Z</time>
      </trkpt>
      <trkpt lat="43.4813" lon="6.31849">
        <ele>182.31</ele>
        <time>2016-03-18T08:52:10Z</time>
      </trkpt>
      <trkpt lat="43.48129" lon="6.31854">
        <ele>181.35</ele>
        <time>2016-03-18T08:52:14Z</time>
      </trkpt>
      <trkpt lat="43.48128" lon="6.3186">
        <ele>180.38</ele>
        <time>2016-03-18T08:52:18Z</time>
      </trkpt>
      <trkpt lat="43.48132" lon="6.31885">
        <ele>178.94</ele>
        <time>2016-03-18T08:52:31Z</time>
      </trkpt>
      <trkpt lat="43.48135" lon="6.31902">
        <ele>180.87</ele>
        <time>2016-03-18T08:52:42Z</time>
      </trkpt>
      <trkpt lat="43.48134" lon="6.31907">
        <ele>182.31</ele>
        <time>2016-03-18T08:52:47Z</time>
      </trkpt>
      <trkpt lat="43.48122" lon="6.31921">
        <ele>185.19</ele>
        <time>2016-03-18T08:53:02Z</time>
      </trkpt>
      <trkpt lat="43.48119" lon="6.31938">
        <ele>187.59</ele>
        <time>2016-03-18T08:53:11Z</time>
      </trkpt>
      <trkpt lat="43.48122" lon="6.31964">
        <ele>189.04</ele>
        <time>2016-03-18T08:53:24Z</time>
      </trkpt>
      <trkpt lat="43.48122" lon="6.3197">
        <ele>189.04</ele>
        <time>2016-03-18T08:53:27Z</time>
      </trkpt>
      <trkpt lat="43.48125" lon="6.31991">
        <ele>189.52</ele>
        <time>2016-03-18T08:53:39Z</time>
      </trkpt>
      <trkpt lat="43.48128" lon="6.32005">
        <ele>189.04</ele>
        <time>2016-03-18T08:53:46Z</time>
      </trkpt>
      <trkpt lat="43.48136" lon="6.32026">
        <ele>188.08</ele>
        <time>2016-03-18T08:53:58Z</time>
      </trkpt>
      <trkpt lat="43.48137" lon="6.32027">
        <ele>187.59</ele>
        <time>2016-03-18T08:53:59Z</time>
      </trkpt>
      <trkpt lat="43.48143" lon="6.32035">
        <ele>186.63</ele>
        <time>2016-03-18T08:54:06Z</time>
      </trkpt>
      <trkpt lat="43.48149" lon="6.32043">
        <ele>186.63</ele>
        <time>2016-03-18T08:54:12Z</time>
      </trkpt>
      <trkpt lat="43.48152" lon="6.32055">
        <ele>186.63</ele>
        <time>2016-03-18T08:54:20Z</time>
      </trkpt>
      <trkpt lat="43.48152" lon="6.32059">
        <ele>186.63</ele>
        <time>2016-03-18T08:54:23Z</time>
      </trkpt>
      <trkpt lat="43.48152" lon="6.32062">
        <ele>186.63</ele>
        <time>2016-03-18T08:54:25Z</time>
      </trkpt>
      <trkpt lat="43.4815" lon="6.32075">
        <ele>188.56</ele>
        <time>2016-03-18T08:54:32Z</time>
      </trkpt>
      <trkpt lat="43.48148" lon="6.32095">
        <ele>189.04</ele>
        <time>2016-03-18T08:54:44Z</time>
      </trkpt>
      <trkpt lat="43.48149" lon="6.32105">
        <ele>189.04</ele>
        <time>2016-03-18T08:54:49Z</time>
      </trkpt>
      <trkpt lat="43.48154" lon="6.32127">
        <ele>190</ele>
        <time>2016-03-18T08:55:01Z</time>
      </trkpt>
      <trkpt lat="43.48156" lon="6.32131">
        <ele>190</ele>
        <time>2016-03-18T08:55:03Z</time>
      </trkpt>
      <trkpt lat="43.48157" lon="6.32134">
        <ele>190</ele>
        <time>2016-03-18T08:55:05Z</time>
      </trkpt>
      <trkpt lat="43.4816" lon="6.32139">
        <ele>190</ele>
        <time>2016-03-18T08:55:08Z</time>
      </trkpt>
      <trkpt lat="43.48162" lon="6.3215">
        <ele>190.48</ele>
        <time>2016-03-18T08:55:13Z</time>
      </trkpt>
      <trkpt lat="43.48165" lon="6.32161">
        <ele>190</ele>
        <time>2016-03-18T08:55:19Z</time>
      </trkpt>
      <trkpt lat="43.48168" lon="6.32172">
        <ele>190</ele>
        <time>2016-03-18T08:55:26Z</time>
      </trkpt>
      <trkpt lat="43.48172" lon="6.32177">
        <ele>189.52</ele>
        <time>2016-03-18T08:55:30Z</time>
      </trkpt>
      <trkpt lat="43.48183" lon="6.32192">
        <ele>188.56</ele>
        <time>2016-03-18T08:55:42Z</time>
      </trkpt>
      <trkpt lat="43.48194" lon="6.32205">
        <ele>187.59</ele>
        <time>2016-03-18T08:55:53Z</time>
      </trkpt>
      <trkpt lat="43.48196" lon="6.32207">
        <ele>187.59</ele>
        <time>2016-03-18T08:55:54Z</time>
      </trkpt>
      <trkpt lat="43.48199" lon="6.32211">
        <ele>187.11</ele>
        <time>2016-03-18T08:55:57Z</time>
      </trkpt>
      <trkpt lat="43.48203" lon="6.32217">
        <ele>187.11</ele>
        <time>2016-03-18T08:56:02Z</time>
      </trkpt>
      <trkpt lat="43.4821" lon="6.32228">
        <ele>186.63</ele>
        <time>2016-03-18T08:56:09Z</time>
      </trkpt>
      <trkpt lat="43.48212" lon="6.32255">
        <ele>186.15</ele>
        <time>2016-03-18T08:56:25Z</time>
      </trkpt>
      <trkpt lat="43.4821" lon="6.32278">
        <ele>186.63</ele>
        <time>2016-03-18T08:56:38Z</time>
      </trkpt>
      <trkpt lat="43.48209" lon="6.32291">
        <ele>186.15</ele>
        <time>2016-03-18T08:56:45Z</time>
      </trkpt>
      <trkpt lat="43.48207" lon="6.32311">
        <ele>185.67</ele>
        <time>2016-03-18T08:56:57Z</time>
      </trkpt>
      <trkpt lat="43.48206" lon="6.32317">
        <ele>185.67</ele>
        <time>2016-03-18T08:57:00Z</time>
      </trkpt>
      <trkpt lat="43.48206" lon="6.32334">
        <ele>185.67</ele>
        <time>2016-03-18T08:57:09Z</time>
      </trkpt>
      <trkpt lat="43.48209" lon="6.32342">
        <ele>185.19</ele>
        <time>2016-03-18T08:57:14Z</time>
      </trkpt>
      <trkpt lat="43.4821" lon="6.32354">
        <ele>185.67</ele>
        <time>2016-03-18T08:57:20Z</time>
      </trkpt>
      <trkpt lat="43.4821" lon="6.32359">
        <ele>185.67</ele>
        <time>2016-03-18T08:57:23Z</time>
      </trkpt>
      <trkpt lat="43.48214" lon="6.32371">
        <ele>185.67</ele>
        <time>2016-03-18T08:57:30Z</time>
      </trkpt>
      <trkpt lat="43.48215" lon="6.32376">
        <ele>185.67</ele>
        <time>2016-03-18T08:57:33Z</time>
      </trkpt>
      <trkpt lat="43.48217" lon="6.3238">
        <ele>185.67</ele>
        <time>2016-03-18T08:57:36Z</time>
      </trkpt>
      <trkpt lat="43.48218" lon="6.32383">
        <ele>185.67</ele>
        <time>2016-03-18T08:57:38Z</time>
      </trkpt>
      <trkpt lat="43.48224" lon="6.32404">
        <ele>184.71</ele>
        <time>2016-03-18T08:57:50Z</time>
      </trkpt>
      <trkpt lat="43.48226" lon="6.32408">
        <ele>184.23</ele>
        <time>2016-03-18T08:57:52Z</time>
      </trkpt>
      <trkpt lat="43.4823" lon="6.32418">
        <ele>184.23</ele>
        <time>2016-03-18T08:57:58Z</time>
      </trkpt>
      <trkpt lat="43.48236" lon="6.32435">
        <ele>183.75</ele>
        <time>2016-03-18T08:58:08Z</time>
      </trkpt>
      <trkpt lat="43.48247" lon="6.32457">
        <ele>184.23</ele>
        <time>2016-03-18T08:58:23Z</time>
      </trkpt>
      <trkpt lat="43.48256" lon="6.32472">
        <ele>184.71</ele>
        <time>2016-03-18T08:58:35Z</time>
      </trkpt>
      <trkpt lat="43.48261" lon="6.32479">
        <ele>184.23</ele>
        <time>2016-03-18T08:58:41Z</time>
      </trkpt>
      <trkpt lat="43.48262" lon="6.32481">
        <ele>183.75</ele>
        <time>2016-03-18T08:58:43Z</time>
      </trkpt>
      <trkpt lat="43.48267" lon="6.32487">
        <ele>183.75</ele>
        <time>2016-03-18T08:58:48Z</time>
      </trkpt>
      <trkpt lat="43.48285" lon="6.32499">
        <ele>181.35</ele>
        <time>2016-03-18T08:59:03Z</time>
      </trkpt>
      <trkpt lat="43.4829" lon="6.32511">
        <ele>179.9</ele>
        <time>2016-03-18T08:59:11Z</time>
      </trkpt>
      <trkpt lat="43.48297" lon="6.32524">
        <ele>178.46</ele>
        <time>2016-03-18T08:59:20Z</time>
      </trkpt>
      <trkpt lat="43.48302" lon="6.32536">
        <ele>177.98</ele>
        <time>2016-03-18T08:59:30Z</time>
      </trkpt>
      <trkpt lat="43.48308" lon="6.32553">
        <ele>178.46</ele>
        <time>2016-03-18T08:59:41Z</time>
      </trkpt>
      <trkpt lat="43.48314" lon="6.32577">
        <ele>178.94</ele>
        <time>2016-03-18T08:59:55Z</time>
      </trkpt>
      <trkpt lat="43.48316" lon="6.32587">
        <ele>179.42</ele>
        <time>2016-03-18T09:00:01Z</time>
      </trkpt>
      <trkpt lat="43.48318" lon="6.32602">
        <ele>180.38</ele>
        <time>2016-03-18T09:00:10Z</time>
      </trkpt>
      <trkpt lat="43.48321" lon="6.32618">
        <ele>181.35</ele>
        <time>2016-03-18T09:00:20Z</time>
      </trkpt>
      <trkpt lat="43.48326" lon="6.32627">
        <ele>180.87</ele>
        <time>2016-03-18T09:00:26Z</time>
      </trkpt>
      <trkpt lat="43.48332" lon="6.32648">
        <ele>180.38</ele>
        <time>2016-03-18T09:00:37Z</time>
      </trkpt>
      <trkpt lat="43.48338" lon="6.3267">
        <ele>178.94</ele>
        <time>2016-03-18T09:00:51Z</time>
      </trkpt>
      <trkpt lat="43.4834" lon="6.32674">
        <ele>178.46</ele>
        <time>2016-03-18T09:00:53Z</time>
      </trkpt>
      <trkpt lat="43.48344" lon="6.32679">
        <ele>177.5</ele>
        <time>2016-03-18T09:00:57Z</time>
      </trkpt>
      <trkpt lat="43.48344" lon="6.32686">
        <ele>176.54</ele>
        <time>2016-03-18T09:01:01Z</time>
      </trkpt>
      <trkpt lat="43.48348" lon="6.32695">
        <ele>175.1</ele>
        <time>2016-03-18T09:01:07Z</time>
      </trkpt>
      <trkpt lat="43.48353" lon="6.3272">
        <ele>172.21</ele>
        <time>2016-03-18T09:01:23Z</time>
      </trkpt>
      <trkpt lat="43.48355" lon="6.32725">
        <ele>171.25</ele>
        <time>2016-03-18T09:01:26Z</time>
      </trkpt>
      <trkpt lat="43.48358" lon="6.32729">
        <ele>171.25</ele>
        <time>2016-03-18T09:01:29Z</time>
      </trkpt>
      <trkpt lat="43.48361" lon="6.32737">
        <ele>169.81</ele>
        <time>2016-03-18T09:01:34Z</time>
      </trkpt>
      <trkpt lat="43.48372" lon="6.32752">
        <ele>168.85</ele>
        <time>2016-03-18T09:01:45Z</time>
      </trkpt>
      <trkpt lat="43.48373" lon="6.32753">
        <ele>168.85</ele>
        <time>2016-03-18T09:01:46Z</time>
      </trkpt>
      <trkpt lat="43.48387" lon="6.32773">
        <ele>169.33</ele>
        <time>2016-03-18T09:02:01Z</time>
      </trkpt>
      <trkpt lat="43.48398" lon="6.32787">
        <ele>169.81</ele>
        <time>2016-03-18T09:02:13Z</time>
      </trkpt>
      <trkpt lat="43.48404" lon="6.32803">
        <ele>170.29</ele>
        <time>2016-03-18T09:02:21Z</time>
      </trkpt>
      <trkpt lat="43.48408" lon="6.3281">
        <ele>169.81</ele>
        <time>2016-03-18T09:02:25Z</time>
      </trkpt>
      <trkpt lat="43.48415" lon="6.32837">
        <ele>169.33</ele>
        <time>2016-03-18T09:02:39Z</time>
      </trkpt>
      <trkpt lat="43.48416" lon="6.32845">
        <ele>169.33</ele>
        <time>2016-03-18T09:02:43Z</time>
      </trkpt>
      <trkpt lat="43.48417" lon="6.32851">
        <ele>168.85</ele>
        <time>2016-03-18T09:02:46Z</time>
      </trkpt>
      <trkpt lat="43.48425" lon="6.32878">
        <ele>168.85</ele>
        <time>2016-03-18T09:03:01Z</time>
      </trkpt>
      <trkpt lat="43.48428" lon="6.32896">
        <ele>167.89</ele>
        <time>2016-03-18T09:03:11Z</time>
      </trkpt>
      <trkpt lat="43.48426" lon="6.3291">
        <ele>167.89</ele>
        <time>2016-03-18T09:03:18Z</time>
      </trkpt>
      <trkpt lat="43.48425" lon="6.32929">
        <ele>167.41</ele>
        <time>2016-03-18T09:03:28Z</time>
      </trkpt>
      <trkpt lat="43.48428" lon="6.32951">
        <ele>167.41</ele>
        <time>2016-03-18T09:03:40Z</time>
      </trkpt>
      <trkpt lat="43.4843" lon="6.32974">
        <ele>166.93</ele>
        <time>2016-03-18T09:03:53Z</time>
      </trkpt>
      <trkpt lat="43.48431" lon="6.32986">
        <ele>166.45</ele>
        <time>2016-03-18T09:03:58Z</time>
      </trkpt>
      <trkpt lat="43.48431" lon="6.3299">
        <ele>166.45</ele>
        <time>2016-03-18T09:04:00Z</time>
      </trkpt>
      <trkpt lat="43.48433" lon="6.32999">
        <ele>165.96</ele>
        <time>2016-03-18T09:04:04Z</time>
      </trkpt>
      <trkpt lat="43.48435" lon="6.33003">
        <ele>165.96</ele>
        <time>2016-03-18T09:04:07Z</time>
      </trkpt>
      <trkpt lat="43.48439" lon="6.33015">
        <ele>165</ele>
        <time>2016-03-18T09:04:14Z</time>
      </trkpt>
      <trkpt lat="43.48444" lon="6.33016">
        <ele>165.48</ele>
        <time>2016-03-18T09:04:18Z</time>
      </trkpt>
      <trkpt lat="43.48448" lon="6.3302">
        <ele>165.48</ele>
        <time>2016-03-18T09:04:21Z</time>
      </trkpt>
      <trkpt lat="43.48456" lon="6.33028">
        <ele>164.52</ele>
        <time>2016-03-18T09:04:29Z</time>
      </trkpt>
      <trkpt lat="43.48471" lon="6.33022">
        <ele>164.04</ele>
        <time>2016-03-18T09:04:45Z</time>
      </trkpt>
      <trkpt lat="43.4847" lon="6.33021">
        <ele>164.04</ele>
        <time>2016-03-18T09:05:01Z</time>
      </trkpt>
      <trkpt lat="43.4847" lon="6.3302">
        <ele>164.04</ele>
        <time>2016-03-18T09:05:23Z</time>
      </trkpt>
      <trkpt lat="43.4847" lon="6.3302">
        <ele>162.6</ele>
        <time>2016-03-18T09:05:35Z</time>
      </trkpt>
    </trkseg>
  </trk>
</gpx>